Time;durP1;ratioP1;P1;durP2;ratioP2;P2;SDS_P1;SDS_P2;PMS_P1;PMS_P2;Temp;Humidity;BMP_temperature;BMP_pressure;BME280_temperature;BME280_humidity;BME280_pressure;Samples;Min_cycle;Max_cycle;Signal;HPM_P1;HPM_P2
2023/01/20 00:01:54;;;;;;;26.63;13.18;;;;;;;;;;5031457;28;20343;-79
2023/01/20 00:04:20;;;;;;;22.73;12.52;;;;;;;;;;5031027;28;20053;-79
2023/01/20 00:06:47;;;;;;;27.05;13.00;;;;;;;;;;5033060;28;20132;-79
2023/01/20 00:09:15;;;;;;;29.95;13.88;;;;;;;;;;5030490;28;20116;-79
2023/01/20 00:11:42;;;;;;;30.38;13.88;;;;;;;;;;5031311;28;20045;-79
2023/01/20 00:14:08;;;;;;;28.08;13.63;;;;;;;;;;5033540;28;20339;-79
2023/01/20 00:16:35;;;;;;;29.52;13.07;;;;;;;;;;5036374;28;20125;-79
2023/01/20 00:19:01;;;;;;;29.02;13.02;;;;;;;;;;5035321;28;20072;-79
2023/01/20 00:21:28;;;;;;;28.77;14.27;;;;;;;;;;5037793;28;20053;-79
2023/01/20 00:23:54;;;;;;;30.20;13.77;;;;;;;;;;5036282;28;20080;-79
2023/01/20 00:26:22;;;;;;;23.98;12.77;;;;;;;;;;5036227;28;20084;-79
2023/01/20 00:28:51;;;;;;;27.20;13.50;;;;;;;;;;5035399;28;20089;-79
2023/01/20 00:31:19;;;;;;;24.13;12.18;;;;;;;;;;5033460;28;20080;-78
2023/01/20 00:33:46;;;;;;;28.90;13.13;;;;;;;;;;5034241;28;20072;-78
2023/01/20 00:36:14;;;;;;;27.42;12.77;;;;;;;;;;5034052;28;20049;-78
2023/01/20 00:38:40;;;;;;;23.15;12.82;;;;;;;;;;5033547;28;20064;-78
2023/01/20 00:41:07;;;;;;;31.80;12.93;;;;;;;;;;5034146;28;20049;-79
2023/01/20 00:43:33;;;;;;;27.17;12.25;;;;;;;;;;5036776;28;20046;-78
2023/01/20 00:46:00;;;;;;;28.75;12.63;;;;;;;;;;5033723;28;20042;-78
2023/01/20 00:48:27;;;;;;;23.52;12.13;;;;;;;;;;5032537;28;20726;-78
2023/01/20 00:50:53;;;;;;;25.38;12.55;;;;;;;;;;5034002;28;20057;-79
2023/01/20 00:53:20;;;;;;;31.10;13.25;;;;;;;;;;5033672;28;20053;-79
2023/01/20 00:55:47;;;;;;;23.80;11.90;;;;;;;;;;5034188;28;20136;-78
2023/01/20 00:58:14;;;;;;;25.52;12.75;;;;;;;;;;5034495;28;20525;-78
2023/01/20 01:00:41;;;;;;;28.67;12.60;;;;;;;;;;5033236;28;20064;-78
2023/01/20 01:03:09;;;;;;;27.73;12.80;;;;;;;;;;5033639;28;20057;-79
2023/01/20 01:05:36;;;;;;;25.63;12.65;;;;;;;;;;5010239;28;20046;-79
2023/01/20 01:08:03;;;;;;;23.63;12.18;;;;;;;;;;5015349;28;20534;-79
2023/01/20 01:10:29;;;;;;;26.35;12.38;;;;;;;;;;5015234;28;20041;-79
2023/01/20 01:12:58;;;;;;;26.25;12.60;;;;;;;;;;5016976;28;20042;-79
2023/01/20 01:15:24;;;;;;;26.75;12.60;;;;;;;;;;5035202;28;20511;-78
2023/01/20 01:17:51;;;;;;;27.10;12.38;;;;;;;;;;5033270;28;20049;-79
2023/01/20 01:20:20;;;;;;;23.95;12.52;;;;;;;;;;5033269;28;20051;-78
2023/01/20 01:22:46;;;;;;;27.80;12.25;;;;;;;;;;5033382;28;20061;-78
2023/01/20 01:25:13;;;;;;;25.00;11.75;;;;;;;;;;5028849;28;20573;-79
2023/01/20 01:27:40;;;;;;;24.08;11.55;;;;;;;;;;5026596;28;20076;-78
2023/01/20 01:30:08;;;;;;;25.60;11.70;;;;;;;;;;5032269;28;20233;-79
2023/01/20 01:32:34;;;;;;;24.35;11.50;;;;;;;;;;5033334;28;20137;-78
2023/01/20 01:35:00;;;;;;;23.23;11.50;;;;;;;;;;5033253;28;20667;-79
2023/01/20 01:37:27;;;;;;;23.33;11.25;;;;;;;;;;5032315;28;20046;-77
2023/01/20 01:39:54;;;;;;;24.33;11.23;;;;;;;;;;5031933;28;20049;-78
2023/01/20 01:42:22;;;;;;;26.90;11.23;;;;;;;;;;5032223;28;20051;-78
2023/01/20 01:45:07;;;;;;;23.33;11.70;;;;;;;;;;5032067;28;20049;-78
2023/01/20 01:47:35;;;;;;;19.92;9.90;;;;;;;;;;5031461;28;20057;-79
2023/01/20 01:50:02;;;;;;;21.20;9.75;;;;;;;;;;5033756;28;20072;-78
2023/01/20 01:52:29;;;;;;;22.00;10.45;;;;;;;;;;5032477;28;20049;-78
2023/01/20 01:54:57;;;;;;;20.02;10.23;;;;;;;;;;5032105;28;20053;-78
2023/01/20 01:57:37;;;;;;;16.73;9.52;;;;;;;;;;5030345;28;20053;-78
2023/01/20 02:00:05;;;;;;;17.08;8.48;;;;;;;;;;5033622;28;20072;-78
2023/01/20 02:02:31;;;;;;;19.83;9.68;;;;;;;;;;5032408;28;20249;-77
2023/01/20 02:04:58;;;;;;;23.45;10.15;;;;;;;;;;5031285;28;20053;-79
2023/01/20 02:07:24;;;;;;;20.98;9.95;;;;;;;;;;5031191;28;20055;-78
2023/01/20 02:09:51;;;;;;;24.58;10.07;;;;;;;;;;5031048;28;20496;-78
2023/01/20 02:12:19;;;;;;;26.92;10.63;;;;;;;;;;5031674;28;20456;-78
2023/01/20 02:14:50;;;;;;;25.98;10.30;;;;;;;;;;5035240;28;20045;-80
2023/01/20 02:17:20;;;;;;;29.50;10.70;;;;;;;;;;5033973;28;20092;-78
2023/01/20 02:20:05;;;;;;;24.17;10.52;;;;;;;;;;5037339;28;20053;-79
2023/01/20 02:22:44;;;;;;;19.10;9.70;;;;;;;;;;5033980;28;20140;-79
2023/01/20 02:25:10;;;;;;;22.38;10.10;;;;;;;;;;5033768;28;20059;-79
2023/01/20 02:27:55;;;;;;;23.77;10.68;;;;;;;;;;5032376;28;20056;-78
2023/01/20 02:30:33;;;;;;;21.17;9.98;;;;;;;;;;5032937;28;20132;-79
2023/01/20 02:33:15;;;;;;;22.73;10.85;;;;;;;;;;5031548;28;20045;-79
2023/01/20 02:35:44;;;;;;;23.42;11.13;;;;;;;;;;5033547;28;20502;-79
2023/01/20 02:38:11;;;;;;;22.83;11.50;;;;;;;;;;5034248;28;20069;-78
2023/01/20 02:40:40;;;;;;;23.02;10.80;;;;;;;;;;5030726;28;20477;-79
2023/01/20 02:43:16;;;;;;;25.02;11.25;;;;;;;;;;5030556;28;20053;-78
2023/01/20 02:45:49;;;;;;;25.42;11.50;;;;;;;;;;5034039;28;20060;-78
2023/01/20 02:48:23;;;;;;;27.23;11.43;;;;;;;;;;5031102;28;20059;-78
2023/01/20 02:51:10;;;;;;;21.60;11.13;;;;;;;;;;5032490;28;20596;-79
2023/01/20 02:53:45;;;;;;;29.52;11.30;;;;;;;;;;5031657;28;20045;-78
2023/01/20 02:56:12;;;;;;;31.13;12.45;;;;;;;;;;5031834;28;20050;-78
2023/01/20 02:58:42;;;;;;;27.95;12.23;;;;;;;;;;5031302;28;20056;-78
2023/01/20 03:01:21;;;;;;;24.77;11.95;;;;;;;;;;5015800;28;20050;-77
2023/01/20 03:03:50;;;;;;;26.30;11.98;;;;;;;;;;5027592;28;20080;-78
2023/01/20 03:06:19;;;;;;;31.02;13.50;;;;;;;;;;5032194;28;20494;-77
2023/01/20 03:08:47;;;;;;;27.75;12.45;;;;;;;;;;5018707;28;20141;-77
2023/01/20 03:11:14;;;;;;;26.92;13.02;;;;;;;;;;5032764;28;20068;-78
2023/01/20 03:13:44;;;;;;;25.70;12.73;;;;;;;;;;5037695;28;20121;-79
2023/01/20 03:16:12;;;;;;;23.80;12.00;;;;;;;;;;5034265;28;20157;-78
2023/01/20 03:18:39;;;;;;;26.25;12.73;;;;;;;;;;5034662;28;20045;-79
2023/01/20 03:21:06;;;;;;;31.92;13.48;;;;;;;;;;5034979;28;20579;-79
2023/01/20 03:23:34;;;;;;;25.83;12.07;;;;;;;;;;5036078;28;20053;-79
2023/01/20 03:26:03;;;;;;;31.20;12.70;;;;;;;;;;5034341;28;20049;-79
2023/01/20 03:28:30;;;;;;;28.30;12.13;;;;;;;;;;5034196;28;20121;-78
2023/01/20 03:30:56;;;;;;;26.90;12.88;;;;;;;;;;5033903;28;20057;-79
2023/01/20 03:33:23;;;;;;;33.03;12.63;;;;;;;;;;5034181;28;20053;-78
2023/01/20 03:35:50;;;;;;;31.05;13.10;;;;;;;;;;5034056;28;20481;-78
2023/01/20 03:38:17;;;;;;;28.58;13.50;;;;;;;;;;5015392;28;20132;-78
2023/01/20 03:40:59;;;;;;;30.65;13.95;;;;;;;;;;5032881;28;20060;-79
2023/01/20 03:43:35;;;;;;;28.88;14.30;;;;;;;;;;5033927;28;20129;-78
2023/01/20 03:46:06;;;;;;;32.92;14.18;;;;;;;;;;5032777;28;20532;-79
2023/01/20 03:48:39;;;;;;;31.92;13.77;;;;;;;;;;5034126;28;20111;-78
2023/01/20 03:51:05;;;;;;;30.35;14.35;;;;;;;;;;5033835;28;20468;-78
2023/01/20 03:53:51;;;;;;;31.55;13.40;;;;;;;;;;5015752;28;20045;-79
2023/01/20 03:56:20;;;;;;;30.58;14.30;;;;;;;;;;5014766;28;20048;-78
2023/01/20 03:58:50;;;;;;;30.67;14.57;;;;;;;;;;5032031;28;20128;-78
2023/01/20 04:01:18;;;;;;;29.80;14.10;;;;;;;;;;5031902;28;20055;-78
2023/01/20 04:03:49;;;;;;;32.65;14.02;;;;;;;;;;5030310;28;20487;-80
2023/01/20 04:06:17;;;;;;;34.00;14.63;;;;;;;;;;5030910;28;20050;-78
2023/01/20 04:08:46;;;;;;;34.55;14.77;;;;;;;;;;5030438;28;20053;-78
2023/01/20 04:11:12;;;;;;;37.67;15.00;;;;;;;;;;5032699;28;20179;-79
2023/01/20 04:13:39;;;;;;;33.05;14.82;;;;;;;;;;5031543;28;20041;-78
2023/01/20 04:16:09;;;;;;;33.47;14.48;;;;;;;;;;5035581;28;20045;-79
2023/01/20 04:18:39;;;;;;;36.40;14.20;;;;;;;;;;5034614;28;20196;-79
2023/01/20 04:21:05;;;;;;;32.10;13.98;;;;;;;;;;5031947;28;20053;-78
2023/01/20 04:23:34;;;;;;;32.35;14.68;;;;;;;;;;5012765;28;20065;-78
2023/01/20 04:26:00;;;;;;;29.25;14.25;;;;;;;;;;5030784;28;20054;-78
2023/01/20 04:28:27;;;;;;;32.60;14.07;;;;;;;;;;5030932;28;20133;-80
2023/01/20 04:30:59;;;;;;;36.83;14.65;;;;;;;;;;5009282;28;20679;-77
2023/01/20 04:33:25;;;;;;;33.03;15.02;;;;;;;;;;5018310;28;20041;-79
2023/01/20 04:35:52;;;;;;;33.05;14.38;;;;;;;;;;5016122;28;20042;-79
2023/01/20 04:38:19;;;;;;;29.02;13.93;;;;;;;;;;5018667;28;20041;-79
2023/01/20 04:40:46;;;;;;;33.67;15.23;;;;;;;;;;5012540;28;20053;-78
2023/01/20 04:43:12;;;;;;;30.92;15.38;;;;;;;;;;5030674;28;20045;-79
2023/01/20 04:45:39;;;;;;;35.88;14.48;;;;;;;;;;5029172;28;20424;-78
2023/01/20 04:48:06;;;;;;;34.55;15.07;;;;;;;;;;5029455;28;20064;-79
2023/01/20 04:50:36;;;;;;;38.35;15.10;;;;;;;;;;5018830;28;20088;-79
2023/01/20 04:53:03;;;;;;;35.92;14.80;;;;;;;;;;5010658;28;20072;-80
2023/01/20 04:55:30;;;;;;;37.83;15.15;;;;;;;;;;5010824;28;20054;-79
2023/01/20 04:57:57;;;;;;;33.33;14.18;;;;;;;;;;5010076;28;20050;-79
2023/01/20 05:00:23;;;;;;;38.47;14.88;;;;;;;;;;5014824;28;20152;-80
2023/01/20 05:02:50;;;;;;;35.70;15.55;;;;;;;;;;4997285;28;20133;-79
2023/01/20 05:05:16;;;;;;;38.25;15.85;;;;;;;;;;4997807;28;20060;-78
2023/01/20 05:07:43;;;;;;;37.65;15.68;;;;;;;;;;5018105;28;20060;-81
2023/01/20 05:10:10;;;;;;;36.10;15.65;;;;;;;;;;5016874;28;20053;-80
2023/01/20 05:12:40;;;;;;;38.35;14.98;;;;;;;;;;5016512;28;20064;-81
2023/01/20 05:15:06;;;;;;;32.92;15.52;;;;;;;;;;5036639;28;20045;-80
2023/01/20 05:17:33;;;;;;;38.22;15.40;;;;;;;;;;5035117;28;20053;-81
2023/01/20 05:19:59;;;;;;;35.60;16.13;;;;;;;;;;5036978;28;20080;-80
2023/01/20 05:22:27;;;;;;;36.08;15.65;;;;;;;;;;5034705;28;20474;-80
2023/01/20 05:24:53;;;;;;;32.35;14.57;;;;;;;;;;5032132;28;20053;-80
2023/01/20 05:27:19;;;;;;;40.90;15.88;;;;;;;;;;5044711;28;20060;-82
2023/01/20 05:29:46;;;;;;;38.33;15.15;;;;;;;;;;5030039;28;20136;-77
2023/01/20 05:32:12;;;;;;;35.88;14.75;;;;;;;;;;5023343;28;20052;-78
2023/01/20 05:34:38;;;;;;;36.80;15.15;;;;;;;;;;5043367;28;20052;-78
2023/01/20 05:37:05;;;;;;;32.17;14.80;;;;;;;;;;5051182;28;20084;-80
2023/01/20 05:39:31;;;;;;;38.92;15.80;;;;;;;;;;5052230;28;20045;-81
2023/01/20 05:41:57;;;;;;;32.38;15.38;;;;;;;;;;5054446;28;20049;-80
2023/01/20 05:44:24;;;;;;;32.60;16.17;;;;;;;;;;5046422;28;20545;-81
2023/01/20 05:46:50;;;;;;;39.17;15.55;;;;;;;;;;5034082;28;20050;-80
2023/01/20 05:49:17;;;;;;;36.13;15.05;;;;;;;;;;5034484;28;20058;-81
2023/01/20 05:51:43;;;;;;;37.22;14.95;;;;;;;;;;5032744;28;20056;-80
2023/01/20 05:54:10;;;;;;;35.17;13.85;;;;;;;;;;5033736;28;20135;-80
2023/01/20 05:56:36;;;;;;;36.85;14.95;;;;;;;;;;5034478;28;20054;-80
2023/01/20 05:59:05;;;;;;;33.50;14.32;;;;;;;;;;5035344;28;20277;-80
2023/01/20 06:01:31;;;;;;;31.10;14.65;;;;;;;;;;5028638;28;20101;-79
2023/01/20 06:03:57;;;;;;;39.10;15.02;;;;;;;;;;5035188;28;20057;-79
2023/01/20 06:06:24;;;;;;;33.80;14.50;;;;;;;;;;5032950;28;20049;-81
2023/01/20 06:08:51;;;;;;;29.73;14.32;;;;;;;;;;5030767;28;20149;-79
2023/01/20 06:11:17;;;;;;;37.33;13.60;;;;;;;;;;5024855;28;20072;-79
2023/01/20 06:13:47;;;;;;;30.65;13.98;;;;;;;;;;5030926;28;20048;-78
2023/01/20 06:16:15;;;;;;;38.00;15.25;;;;;;;;;;5030213;28;20049;-81
2023/01/20 06:18:41;;;;;;;33.78;14.23;;;;;;;;;;5030323;28;20049;-79
2023/01/20 06:21:08;;;;;;;34.45;14.10;;;;;;;;;;5031785;28;20049;-78
2023/01/20 06:23:34;;;;;;;32.97;13.85;;;;;;;;;;5032960;28;20052;-79
2023/01/20 06:26:02;;;;;;;36.65;13.77;;;;;;;;;;5032401;28;20068;-79
2023/01/20 06:28:43;;;;;;;32.45;13.70;;;;;;;;;;4989307;28;20148;-79
2023/01/20 06:31:14;;;;;;;33.55;14.13;;;;;;;;;;5024065;28;20057;-79
2023/01/20 06:33:41;;;;;;;40.92;14.15;;;;;;;;;;5028853;28;20052;-79
2023/01/20 06:36:12;;;;;;;37.65;15.90;;;;;;;;;;5019410;28;20059;-79
2023/01/20 06:38:38;;;;;;;42.80;14.80;;;;;;;;;;5029120;28;20049;-79
2023/01/20 06:41:06;;;;;;;34.42;14.73;;;;;;;;;;5027655;28;20053;-79
2023/01/20 06:43:33;;;;;;;36.95;14.52;;;;;;;;;;5039702;28;20048;-78
2023/01/20 06:46:03;;;;;;;32.15;14.35;;;;;;;;;;5043768;28;20053;-80
2023/01/20 06:48:30;;;;;;;34.33;14.25;;;;;;;;;;5022719;28;20057;-80
2023/01/20 06:51:04;;;;;;;35.42;14.68;;;;;;;;;;5028280;28;20080;-79
2023/01/20 06:53:30;;;;;;;34.92;14.48;;;;;;;;;;5023449;28;20056;-79
2023/01/20 06:55:58;;;;;;;35.33;14.30;;;;;;;;;;5008842;28;20220;-78
2023/01/20 06:58:25;;;;;;;35.10;14.48;;;;;;;;;;5017142;28;20060;-80
2023/01/20 07:00:52;;;;;;;33.90;14.30;;;;;;;;;;5026155;28;20144;-80
2023/01/20 07:03:18;;;;;;;35.58;14.50;;;;;;;;;;5007393;28;20049;-79
2023/01/20 07:06:14;;;;;;;38.65;15.15;;;;;;;;;;5024618;28;20057;-79
2023/01/20 07:08:41;;;;;;;31.25;14.27;;;;;;;;;;5006066;28;20083;-80
2023/01/20 07:11:08;;;;;;;39.95;15.05;;;;;;;;;;5033101;28;20515;-80
2023/01/20 07:13:34;;;;;;;36.28;14.75;;;;;;;;;;5037795;28;20045;-80
2023/01/20 07:16:01;;;;;;;39.83;14.90;;;;;;;;;;5035028;28;20065;-81
2023/01/20 07:18:27;;;;;;;36.00;14.90;;;;;;;;;;5034469;28;20115;-81
2023/01/20 07:20:54;;;;;;;40.28;15.07;;;;;;;;;;5035089;28;20057;-80
2023/01/20 07:23:21;;;;;;;37.22;15.60;;;;;;;;;;5034729;28;20060;-81
2023/01/20 07:25:55;;;;;;;37.75;16.42;;;;;;;;;;5034955;28;20401;-79
2023/01/20 07:28:21;;;;;;;29.42;12.68;;;;;;;;;;5023815;28;20056;-79
2023/01/20 07:30:48;;;;;;;43.50;16.33;;;;;;;;;;5022062;28;20053;-81
2023/01/20 07:33:14;;;;;;;40.30;17.05;;;;;;;;;;5033194;28;20041;-80
2023/01/20 07:35:41;;;;;;;39.95;16.23;;;;;;;;;;5034946;28;20049;-81
2023/01/20 07:38:07;;;;;;;40.58;16.83;;;;;;;;;;5033754;28;20060;-79
2023/01/20 07:40:33;;;;;;;38.42;16.83;;;;;;;;;;5044214;28;20060;-81
2023/01/20 07:43:03;;;;;;;46.88;17.15;;;;;;;;;;5022409;28;20140;-82
2023/01/20 07:45:29;;;;;;;41.35;16.83;;;;;;;;;;5035115;28;20054;-82
2023/01/20 07:47:56;;;;;;;41.30;16.25;;;;;;;;;;5033667;28;20065;-81
2023/01/20 07:50:22;;;;;;;40.10;16.45;;;;;;;;;;5032309;28;20053;-80
2023/01/20 07:52:49;;;;;;;36.85;16.27;;;;;;;;;;5033439;28;20084;-81
2023/01/20 07:55:15;;;;;;;41.20;16.92;;;;;;;;;;5034475;28;20041;-80
2023/01/20 07:57:42;;;;;;;38.17;15.60;;;;;;;;;;5033179;28;20045;-81
2023/01/20 08:00:09;;;;;;;33.75;15.10;;;;;;;;;;5034446;28;20053;-81
2023/01/20 08:02:38;;;;;;;37.88;15.90;;;;;;;;;;5033234;28;20049;-81
2023/01/20 08:05:05;;;;;;;42.72;15.60;;;;;;;;;;5014803;28;20137;-82
2023/01/20 08:07:33;;;;;;;43.28;16.73;;;;;;;;;;5033147;28;20076;-81
2023/01/20 08:09:59;;;;;;;41.83;15.20;;;;;;;;;;5033138;28;20053;-80
2023/01/20 08:12:27;;;;;;;42.13;15.18;;;;;;;;;;5033319;28;20423;-81
2023/01/20 08:14:53;;;;;;;39.60;15.55;;;;;;;;;;5034285;28;20061;-80
2023/01/20 08:17:19;;;;;;;32.45;14.48;;;;;;;;;;5034598;28;20489;-80
2023/01/20 08:19:46;;;;;;;35.83;14.18;;;;;;;;;;5033476;28;20041;-80
2023/01/20 08:22:12;;;;;;;32.33;14.00;;;;;;;;;;5037342;28;20053;-80
2023/01/20 08:24:39;;;;;;;32.63;13.20;;;;;;;;;;5038248;28;20084;-81
2023/01/20 08:27:05;;;;;;;32.30;13.45;;;;;;;;;;5039228;28;20559;-81
2023/01/20 08:29:32;;;;;;;31.30;13.70;;;;;;;;;;5040642;28;20049;-81
2023/01/20 08:31:59;;;;;;;29.70;13.82;;;;;;;;;;5040908;28;20371;-81
2023/01/20 08:34:26;;;;;;;33.53;14.10;;;;;;;;;;5043443;28;20041;-83
2023/01/20 08:36:53;;;;;;;33.17;14.13;;;;;;;;;;5041712;28;20042;-82
2023/01/20 08:39:19;;;;;;;32.78;13.50;;;;;;;;;;5037640;28;20645;-82
2023/01/20 08:41:46;;;;;;;32.70;14.00;;;;;;;;;;5035806;28;20425;-81
2023/01/20 08:44:13;;;;;;;35.17;14.15;;;;;;;;;;5035831;28;20053;-81
2023/01/20 08:46:40;;;;;;;36.13;15.07;;;;;;;;;;5035890;28;20060;-82
2023/01/20 08:49:16;;;;;;;31.88;13.32;;;;;;;;;;5034705;28;20053;-81
2023/01/20 08:51:43;;;;;;;32.83;13.82;;;;;;;;;;5033755;28;20046;-80
2023/01/20 08:54:10;;;;;;;35.10;13.88;;;;;;;;;;5035360;28;20080;-80
2023/01/20 08:56:36;;;;;;;30.13;13.43;;;;;;;;;;5035920;28;20072;-80
2023/01/20 08:59:03;;;;;;;34.95;13.85;;;;;;;;;;5035298;28;20105;-80
2023/01/20 09:01:32;;;;;;;36.40;14.70;;;;;;;;;;5024521;28;20053;-80
2023/01/20 09:03:58;;;;;;;37.10;14.10;;;;;;;;;;5035213;28;20045;-80
2023/01/20 09:06:51;;;;;;;35.00;13.68;;;;;;;;;;5018945;28;20056;-80
2023/01/20 09:09:19;;;;;;;32.72;14.25;;;;;;;;;;5017829;28;20049;-81
2023/01/20 09:11:49;;;;;;;27.40;13.48;;;;;;;;;;5018528;28;20052;-80
2023/01/20 09:14:17;;;;;;;36.58;14.32;;;;;;;;;;5036295;28;20049;-81
2023/01/20 09:16:44;;;;;;;32.33;12.38;;;;;;;;;;5034425;28;20041;-82
2023/01/20 09:19:10;;;;;;;34.95;13.02;;;;;;;;;;5035729;28;20041;-80
2023/01/20 09:21:36;;;;;;;39.25;13.25;;;;;;;;;;5035538;28;20099;-81
2023/01/20 09:24:03;;;;;;;31.40;13.68;;;;;;;;;;5034808;28;20548;-80
2023/01/20 09:26:37;;;;;;;31.60;12.70;;;;;;;;;;5035222;28;20096;-80
2023/01/20 09:29:07;;;;;;;32.72;13.50;;;;;;;;;;5033847;28;20080;-81
2023/01/20 09:31:52;;;;;;;33.13;14.07;;;;;;;;;;5033361;28;20051;-81
2023/01/20 09:34:23;;;;;;;30.83;13.70;;;;;;;;;;5034722;28;20073;-81
2023/01/20 09:36:50;;;;;;;31.58;13.55;;;;;;;;;;5035892;28;20054;-81
2023/01/20 09:45:08;;;;;;;31.38;13.27;;;;;;;;;;5003450;28;20060;-81
2023/01/20 09:47:39;;;;;;;38.13;13.57;;;;;;;;;;5033319;28;20498;-81
2023/01/20 09:53:14;;;;;;;31.15;12.02;;;;;;;;;;5033544;28;20045;-81
2023/01/20 09:55:43;;;;;;;32.08;11.70;;;;;;;;;;5033671;28;20045;-81
2023/01/20 09:58:26;;;;;;;28.92;12.10;;;;;;;;;;5033900;28;20053;-83
2023/01/20 10:00:59;;;;;;;29.25;11.35;;;;;;;;;;5017061;28;20053;-81
2023/01/20 10:03:49;;;;;;;31.52;11.73;;;;;;;;;;5035947;28;20045;-80
2023/01/20 10:06:23;;;;;;;25.58;10.63;;;;;;;;;;4991952;28;20045;-79
2023/01/20 10:08:56;;;;;;;27.92;10.27;;;;;;;;;;5036769;28;20469;-80
2023/01/20 10:11:35;;;;;;;25.73;10.27;;;;;;;;;;5031668;28;20119;-81
2023/01/20 10:14:08;;;;;;;25.25;10.32;;;;;;;;;;5032512;28;20045;-80
2023/01/20 10:16:49;;;;;;;24.95;11.13;;;;;;;;;;5017454;28;20683;-79
2023/01/20 10:19:26;;;;;;;24.58;11.70;;;;;;;;;;5033382;28;20141;-80
2023/01/20 10:22:01;;;;;;;26.88;10.25;;;;;;;;;;5036629;28;20092;-78
2023/01/20 10:24:31;;;;;;;25.02;10.73;;;;;;;;;;5041331;28;20049;-79
2023/01/20 10:27:00;;;;;;;25.15;10.38;;;;;;;;;;5039746;28;20049;-79
2023/01/20 10:29:35;;;;;;;24.92;11.55;;;;;;;;;;5038102;28;20628;-79
2023/01/20 10:32:04;;;;;;;26.25;10.45;;;;;;;;;;5035058;28;20469;-80
2023/01/20 10:34:39;;;;;;;25.10;10.52;;;;;;;;;;5033805;28;20065;-80
2023/01/20 10:37:06;;;;;;;24.52;10.48;;;;;;;;;;5034773;28;20049;-82
2023/01/20 10:39:48;;;;;;;21.13;10.38;;;;;;;;;;5036834;28;20136;-80
2023/01/20 10:42:16;;;;;;;22.77;9.93;;;;;;;;;;5037111;28;20144;-80
2023/01/20 10:44:42;;;;;;;30.65;11.68;;;;;;;;;;5039673;28;20049;-79
2023/01/20 10:47:12;;;;;;;27.52;10.60;;;;;;;;;;5038905;28;20132;-80
2023/01/20 10:49:39;;;;;;;26.98;10.32;;;;;;;;;;5033357;28;20107;-80
2023/01/20 10:52:08;;;;;;;22.73;9.07;;;;;;;;;;5033741;28;20052;-80
2023/01/20 10:54:45;;;;;;;27.40;10.07;;;;;;;;;;5034204;28;20129;-79
2023/01/20 10:57:13;;;;;;;30.75;10.45;;;;;;;;;;5034191;28;20084;-79
2023/01/20 10:59:44;;;;;;;27.20;10.05;;;;;;;;;;5028285;28;20509;-81
2023/01/20 11:02:30;;;;;;;27.15;10.18;;;;;;;;;;5033311;28;20131;-81
2023/01/20 11:04:57;;;;;;;27.88;10.90;;;;;;;;;;5031690;28;20073;-81
2023/01/20 11:07:24;;;;;;;23.65;10.60;;;;;;;;;;5030694;28;20049;-81
2023/01/20 11:09:51;;;;;;;23.75;11.70;;;;;;;;;;5029385;28;20088;-81
2023/01/20 11:12:20;;;;;;;27.33;11.07;;;;;;;;;;5031196;28;20508;-80
2023/01/20 11:14:47;;;;;;;30.67;11.68;;;;;;;;;;5029595;28;20048;-81
2023/01/20 11:17:19;;;;;;;29.75;12.95;;;;;;;;;;5033455;28;20069;-81
2023/01/20 11:19:46;;;;;;;33.63;12.38;;;;;;;;;;5033158;28;20052;-80
2023/01/20 11:22:13;;;;;;;27.65;10.88;;;;;;;;;;5034104;28;20077;-79
2023/01/20 11:24:43;;;;;;;29.33;11.48;;;;;;;;;;5031656;28;20064;-81
2023/01/20 11:27:15;;;;;;;23.80;11.02;;;;;;;;;;5027283;28;20049;-81
2023/01/20 11:29:47;;;;;;;26.25;11.50;;;;;;;;;;5021448;28;20076;-81
2023/01/20 11:32:23;;;;;;;30.15;11.95;;;;;;;;;;5014195;28;20071;-79
2023/01/20 11:34:50;;;;;;;29.88;11.88;;;;;;;;;;5032320;28;20041;-80
2023/01/20 11:37:24;;;;;;;25.48;11.10;;;;;;;;;;5031998;28;20116;-80
2023/01/20 11:40:23;;;;;;;28.13;10.75;;;;;;;;;;5031243;28;20103;-79
2023/01/20 11:42:50;;;;;;;26.75;11.45;;;;;;;;;;4998261;28;20169;-79
2023/01/20 11:45:27;;;;;;;25.45;10.82;;;;;;;;;;5026544;28;20038;-78
2023/01/20 11:48:04;;;;;;;21.50;9.85;;;;;;;;;;5023713;28;20065;-78
2023/01/20 11:50:32;;;;;;;27.90;11.35;;;;;;;;;;5027630;28;20487;-78
2023/01/20 11:53:22;;;;;;;25.73;10.65;;;;;;;;;;5009025;28;20473;-81
2023/01/20 11:55:52;;;;;;;23.13;9.52;;;;;;;;;;5018735;28;20052;-79
2023/01/20 11:58:26;;;;;;;25.80;9.93;;;;;;;;;;5026432;28;20049;-79
2023/01/20 12:00:59;;;;;;;20.92;9.43;;;;;;;;;;5011944;28;20113;-79
2023/01/20 12:03:28;;;;;;;20.30;8.50;;;;;;;;;;5027555;28;20666;-79
2023/01/20 12:05:55;;;;;;;22.73;8.63;;;;;;;;;;5029606;28;20132;-82
2023/01/20 12:08:31;;;;;;;21.35;8.32;;;;;;;;;;5016905;28;20463;-82
2023/01/20 12:10:59;;;;;;;20.95;7.53;;;;;;;;;;5027011;28;20068;-79
2023/01/20 12:13:27;;;;;;;16.95;7.57;;;;;;;;;;5022328;28;20037;-79
2023/01/20 12:15:55;;;;;;;23.38;8.48;;;;;;;;;;5036504;28;20056;-80
2023/01/20 12:18:41;;;;;;;20.15;8.52;;;;;;;;;;5036460;28;20053;-80
2023/01/20 12:21:28;;;;;;;19.52;8.25;;;;;;;;;;5036076;28;20049;-80
2023/01/20 12:24:14;;;;;;;23.40;9.20;;;;;;;;;;5035896;28;20056;-79
2023/01/20 12:26:41;;;;;;;19.70;8.27;;;;;;;;;;5036328;28;20049;-80
2023/01/20 12:29:20;;;;;;;25.30;10.15;;;;;;;;;;5035655;28;20442;-77
2023/01/20 12:31:48;;;;;;;24.60;9.77;;;;;;;;;;5035324;28;20049;-79
2023/01/20 12:34:15;;;;;;;25.40;10.93;;;;;;;;;;5034950;28;20087;-79
2023/01/20 12:36:42;;;;;;;30.48;9.75;;;;;;;;;;5017935;28;20060;-79
2023/01/20 12:39:14;;;;;;;17.80;8.25;;;;;;;;;;5035584;28;20505;-79
2023/01/20 12:41:48;;;;;;;23.52;7.75;;;;;;;;;;5036071;28;20045;-80
2023/01/20 12:44:35;;;;;;;19.48;7.40;;;;;;;;;;5035348;28;20050;-80
2023/01/20 12:47:15;;;;;;;20.67;7.72;;;;;;;;;;5036067;28;20091;-81
2023/01/20 12:50:00;;;;;;;20.95;7.75;;;;;;;;;;5035956;28;20045;-82
2023/01/20 12:52:39;;;;;;;19.45;8.23;;;;;;;;;;5019928;28;20113;-81
2023/01/20 12:55:19;;;;;;;21.67;8.25;;;;;;;;;;5036386;28;20522;-83
2023/01/20 12:57:58;;;;;;;19.30;7.97;;;;;;;;;;5035541;28;20555;-80
2023/01/20 13:00:28;;;;;;;23.15;9.13;;;;;;;;;;5018704;28;20050;-81
2023/01/20 13:02:57;;;;;;;25.73;9.02;;;;;;;;;;5018392;28;20050;-79
2023/01/20 13:05:42;;;;;;;26.13;10.38;;;;;;;;;;5036765;28;20049;-81
2023/01/20 13:08:35;;;;;;;23.38;9.57;;;;;;;;;;5035390;28;20128;-81
2023/01/20 13:11:07;;;;;;;22.90;10.27;;;;;;;;;;5037201;28;20119;-82
2023/01/20 13:13:53;;;;;;;22.45;9.73;;;;;;;;;;5034944;28;20037;-81
2023/01/20 13:16:30;;;;;;;23.15;9.85;;;;;;;;;;5036590;28;20045;-81
2023/01/20 13:19:18;;;;;;;25.35;10.07;;;;;;;;;;5036254;28;20136;-80
2023/01/20 13:21:49;;;;;;;22.15;8.85;;;;;;;;;;5036102;28;20084;-80
2023/01/20 13:24:35;;;;;;;25.00;9.40;;;;;;;;;;5034909;28;20076;-80
2023/01/20 13:27:02;;;;;;;19.15;8.65;;;;;;;;;;5035773;28;20049;-82
2023/01/20 13:29:52;;;;;;;23.05;9.77;;;;;;;;;;5036094;28;20137;-80
2023/01/20 13:32:25;;;;;;;26.35;10.50;;;;;;;;;;5028919;28;20041;-80
2023/01/20 13:34:51;;;;;;;25.75;11.13;;;;;;;;;;5036846;28;20287;-81
2023/01/20 13:37:18;;;;;;;37.78;14.13;;;;;;;;;;5030707;28;20037;-79
2023/01/20 13:39:45;;;;;;;28.88;11.98;;;;;;;;;;5036747;28;20105;-80
2023/01/20 13:42:26;;;;;;;24.38;9.93;;;;;;;;;;5037412;28;20057;-79
2023/01/20 13:45:21;;;;;;;19.70;9.60;;;;;;;;;;5035690;28;20149;-81
2023/01/20 13:47:58;;;;;;;24.00;8.35;;;;;;;;;;5031442;28;20049;-81
2023/01/20 13:50:26;;;;;;;22.25;9.65;;;;;;;;;;5017134;28;20049;-81
2023/01/20 13:52:56;;;;;;;22.63;8.90;;;;;;;;;;5034081;28;20140;-80
2023/01/20 13:55:26;;;;;;;23.58;9.70;;;;;;;;;;5023792;28;20447;-80
2023/01/20 13:57:53;;;;;;;24.95;9.48;;;;;;;;;;5034889;28;20072;-80
2023/01/20 14:00:19;;;;;;;23.38;8.68;;;;;;;;;;5037923;28;20052;-80
2023/01/20 14:02:46;;;;;;;23.33;7.93;;;;;;;;;;5021271;28;20490;-80
2023/01/20 14:05:23;;;;;;;19.83;7.65;;;;;;;;;;5020497;28;20052;-80
2023/01/20 14:07:50;;;;;;;18.05;8.80;;;;;;;;;;5033827;28;20132;-80
2023/01/20 14:10:17;;;;;;;25.08;8.82;;;;;;;;;;5022994;28;20771;-80
2023/01/20 14:12:43;;;;;;;31.08;10.75;;;;;;;;;;5024670;28;20042;-81
2023/01/20 14:15:36;;;;;;;24.95;10.30;;;;;;;;;;5032824;28;20048;-80
2023/01/20 14:18:03;;;;;;;26.70;9.63;;;;;;;;;;5024691;28;20055;-79
2023/01/20 14:20:33;;;;;;;23.90;10.18;;;;;;;;;;5028150;28;20071;-80
2023/01/20 14:23:18;;;;;;;24.27;10.43;;;;;;;;;;5015428;28;20489;-80
2023/01/20 14:25:55;;;;;;;43.38;15.00;;;;;;;;;;5014523;28;20494;-81
2023/01/20 14:28:21;;;;;;;41.03;16.58;;;;;;;;;;5014881;28;20109;-81
2023/01/20 14:30:47;;;;;;;26.52;12.00;;;;;;;;;;4998311;28;20060;-81
2023/01/20 14:33:16;;;;;;;30.45;11.82;;;;;;;;;;4997627;28;20045;-80
2023/01/20 14:35:43;;;;;;;35.53;14.18;;;;;;;;;;4997428;28;20046;-79
2023/01/20 14:38:16;;;;;;;48.15;15.32;;;;;;;;;;5013275;28;20053;-80
2023/01/20 14:40:43;;;;;;;31.95;12.23;;;;;;;;;;5027088;28;20045;-80
2023/01/20 14:43:29;;;;;;;31.85;12.80;;;;;;;;;;5033474;28;20120;-80
2023/01/20 14:45:56;;;;;;;45.83;15.25;;;;;;;;;;5034016;28;20045;-80